createdAt,value
2018-07-22T00:00:25.176Z,21.46
2018-07-22T00:01:25.013Z,21.52
2018-07-22T00:02:24.983Z,21.43
2018-07-22T00:03:24.831Z,21.43
2018-07-22T00:04:24.786Z,21.42
2018-07-22T00:05:24.695Z,21.38
2018-07-22T00:06:24.739Z,21.38
2018-07-22T00:07:24.551Z,21.36
2018-07-22T00:11:10.648Z,21.27
2018-07-22T00:12:10.624Z,21.28
2018-07-22T00:13:10.471Z,21.28
2018-07-22T00:14:10.483Z,21.27
2018-07-22T00:15:10.308Z,21.26
2018-07-22T00:16:10.376Z,21.24
2018-07-22T00:17:10.141Z,21.24
2018-07-22T00:18:10.134Z,21.24
2018-07-22T00:19:10.011Z,21.21
2018-07-22T00:20:09.967Z,21.21
2018-07-22T00:21:09.847Z,21.21
2018-07-22T00:22:09.881Z,21.18
2018-07-22T00:23:09.684Z,21.16
2018-07-22T00:24:09.669Z,21.13
2018-07-22T00:25:09.520Z,21.08
2018-07-22T00:26:09.593Z,21.12
2018-07-22T00:27:09.391Z,21.08
2018-07-22T00:28:09.382Z,21.08
2018-07-22T00:29:09.215Z,21.03
2018-07-22T00:30:09.206Z,21.12
2018-07-22T00:31:09.102Z,21.01
2018-07-22T00:32:09.041Z,20.97
2018-07-22T00:33:08.904Z,21.00
2018-07-22T00:35:51.166Z,20.93
2018-07-22T00:36:51.158Z,20.91
2018-07-22T00:37:50.971Z,20.87
2018-07-22T00:38:50.924Z,20.87
2018-07-22T00:39:50.806Z,20.88
2018-07-22T00:40:50.842Z,20.87
2018-07-22T00:41:50.678Z,20.90
2018-07-22T00:42:50.642Z,20.88
2018-07-22T00:43:50.514Z,20.91
2018-07-22T00:44:50.455Z,20.91
2018-07-22T00:45:50.347Z,20.81
2018-07-22T00:46:50.393Z,20.88
2018-07-22T00:47:50.190Z,20.83
2018-07-22T00:48:50.172Z,20.81
2018-07-22T00:49:50.046Z,20.73
2018-07-22T00:50:50.081Z,20.85
2018-07-22T00:51:49.891Z,20.79
2018-07-22T00:52:50.964Z,20.73
2018-07-22T00:53:49.717Z,20.71
2018-07-22T00:54:49.708Z,20.68
2018-07-22T00:55:49.567Z,20.64
2018-07-22T00:56:49.637Z,20.61
2018-07-22T00:57:49.426Z,20.68
2018-07-22T00:58:49.415Z,20.58
2018-07-22T00:59:49.312Z,20.57
2018-07-22T01:00:49.219Z,20.68
2018-07-22T01:01:49.095Z,20.63
2018-07-22T01:02:49.173Z,20.66
2018-07-22T01:03:48.935Z,20.56
2018-07-22T01:04:48.958Z,20.58
2018-07-22T01:05:48.784Z,20.44
2018-07-22T01:06:48.749Z,20.53
2018-07-22T01:07:48.624Z,20.64
2018-07-22T01:08:48.739Z,20.51
2018-07-22T01:09:48.467Z,20.56
2018-07-22T01:10:48.484Z,20.51
2018-07-22T01:11:48.324Z,20.48
2018-07-22T01:12:48.286Z,20.46
2018-07-22T01:13:48.183Z,20.50
2018-07-22T01:14:48.190Z,20.38
2018-07-22T01:15:48.008Z,20.41
2018-07-22T01:16:48.026Z,20.35
2018-07-22T01:17:47.846Z,20.38
2018-07-22T01:18:47.855Z,20.41
2018-07-22T01:19:47.693Z,20.40
2018-07-22T01:20:47.735Z,20.37
2018-07-22T01:21:47.553Z,20.34
2018-07-22T01:24:29.660Z,20.26
2018-07-22T01:25:29.627Z,20.30
2018-07-22T01:26:29.480Z,20.30
2018-07-22T01:27:29.456Z,20.23
2018-07-22T01:28:29.332Z,20.22
2018-07-22T01:29:29.380Z,20.25
2018-07-22T01:30:29.176Z,20.19
2018-07-22T01:31:29.158Z,20.19
2018-07-22T01:32:29.012Z,20.16
2018-07-22T01:33:28.966Z,20.12
2018-07-22T01:34:28.874Z,20.15
2018-07-22T01:35:28.873Z,20.12
2018-07-22T01:36:28.697Z,20.05
2018-07-22T01:37:28.682Z,20.07
2018-07-22T01:38:28.545Z,20.00
2018-07-22T01:39:28.528Z,19.90
2018-07-22T01:40:28.382Z,19.97
2018-07-22T01:43:10.643Z,19.95
2018-07-22T01:45:52.684Z,19.92
2018-07-22T01:46:52.612Z,19.90
2018-07-22T01:47:52.485Z,20.00
2018-07-22T01:48:52.526Z,19.92
2018-07-22T01:49:52.360Z,19.95
2018-07-22T01:50:52.329Z,19.90
2018-07-22T01:51:52.198Z,19.80
2018-07-22T01:52:52.132Z,19.85
2018-07-22T01:53:52.023Z,19.87
2018-07-22T01:54:52.045Z,19.85
2018-07-22T01:55:51.863Z,19.71
2018-07-22T01:56:51.891Z,19.83
2018-07-22T01:57:51.704Z,19.82
2018-07-22T01:58:51.658Z,19.68
2018-07-22T01:59:51.549Z,19.75
2018-07-22T02:00:51.602Z,19.72
2018-07-22T02:01:51.389Z,19.76
2018-07-22T02:02:51.377Z,19.79
2018-07-22T02:03:51.238Z,19.79
2018-07-22T02:04:51.290Z,19.75
2018-07-22T02:05:51.122Z,19.76
2018-07-22T02:08:33.151Z,19.72
2018-07-22T02:09:33.196Z,19.75
2018-07-22T02:10:33.012Z,19.68
2018-07-22T02:11:32.925Z,19.70
2018-07-22T02:12:32.831Z,19.72
2018-07-22T02:13:32.849Z,19.75
2018-07-22T02:14:32.684Z,19.70
2018-07-22T02:15:32.654Z,19.62
2018-07-22T02:16:32.519Z,19.67
2018-07-22T02:17:32.529Z,19.65
2018-07-22T02:18:32.498Z,19.62
2018-07-22T02:19:32.337Z,19.62
2018-07-22T02:20:32.233Z,19.60
2018-07-22T02:21:32.181Z,19.55
2018-07-22T02:22:32.056Z,19.60
2018-07-22T02:23:32.056Z,19.61
2018-07-22T02:24:31.899Z,19.53
2018-07-22T02:25:31.829Z,19.57
2018-07-22T02:26:31.766Z,19.53
2018-07-22T02:27:31.779Z,19.46
2018-07-22T02:28:31.584Z,19.49
2018-07-22T02:29:31.636Z,19.49
2018-07-22T02:30:31.446Z,19.53
2018-07-22T02:31:31.433Z,19.53
2018-07-22T02:32:31.264Z,19.49
2018-07-22T02:35:13.173Z,19.53
2018-07-22T02:36:14.166Z,19.53
2018-07-22T02:37:13.008Z,19.43
2018-07-22T02:39:55.165Z,19.42
2018-07-22T02:40:55.114Z,19.43
2018-07-22T02:41:55.022Z,19.35
2018-07-22T02:42:55.037Z,19.28
2018-07-22T02:43:54.842Z,19.27
2018-07-22T02:44:54.837Z,19.32
2018-07-22T02:45:54.703Z,19.32
2018-07-22T02:46:54.689Z,19.34
2018-07-22T02:47:54.551Z,19.30
2018-07-22T02:48:54.548Z,19.34
2018-07-22T02:49:54.389Z,19.28
2018-07-22T02:50:54.368Z,19.31
2018-07-22T02:51:54.245Z,19.31
2018-07-22T02:52:54.208Z,19.27
2018-07-22T02:53:54.076Z,19.24
2018-07-22T02:54:54.073Z,19.27
2018-07-22T02:55:53.917Z,19.17
2018-07-22T02:56:53.929Z,19.15
2018-07-22T02:57:53.778Z,19.16
2018-07-22T02:58:53.707Z,19.17
2018-07-22T02:59:53.613Z,19.15
2018-07-22T03:02:35.687Z,19.06
2018-07-22T03:03:35.703Z,19.09
2018-07-22T03:04:35.509Z,19.10
2018-07-22T03:07:17.686Z,19.10
2018-07-22T03:08:18.670Z,19.10
2018-07-22T03:09:17.511Z,19.02
2018-07-22T03:10:17.526Z,19.07
2018-07-22T03:11:17.352Z,19.15
2018-07-22T03:12:17.337Z,19.10
2018-07-22T03:13:17.233Z,19.02
2018-07-22T03:14:17.238Z,19.05
2018-07-22T03:15:17.066Z,18.97
2018-07-22T03:16:17.053Z,18.96
2018-07-22T03:17:16.882Z,18.93
2018-07-22T03:18:16.864Z,18.99
2018-07-22T03:19:16.726Z,18.93
2018-07-22T03:20:16.701Z,18.91
2018-07-22T03:21:16.566Z,18.91
2018-07-22T03:22:16.585Z,18.93
2018-07-22T03:23:16.449Z,18.89
2018-07-22T03:24:16.388Z,18.83
2018-07-22T03:25:16.256Z,18.90
2018-07-22T03:27:58.197Z,18.90
2018-07-22T03:28:58.189Z,18.90
2018-07-22T03:29:58.013Z,18.99
2018-07-22T03:30:58.016Z,18.99
2018-07-22T03:31:57.857Z,18.89
2018-07-22T03:32:57.847Z,18.89
2018-07-22T03:33:57.710Z,18.89
2018-07-22T03:34:57.725Z,18.84
2018-07-22T03:35:57.538Z,18.93
2018-07-22T03:38:39.694Z,18.83
2018-07-22T03:39:39.632Z,18.83
2018-07-22T03:40:39.520Z,18.78
2018-07-22T03:43:21.697Z,18.74
2018-07-22T03:44:21.647Z,18.72
2018-07-22T03:45:21.521Z,18.72
2018-07-22T03:46:21.558Z,18.71
2018-07-22T03:47:21.375Z,18.76
2018-07-22T03:48:21.406Z,18.64
2018-07-22T03:50:45.679Z,18.69
2018-07-22T03:51:45.655Z,18.68
2018-07-22T03:52:45.531Z,18.59
2018-07-22T03:53:46.521Z,18.71
2018-07-22T03:54:45.367Z,18.65
2018-07-22T03:55:45.371Z,18.66
2018-07-22T03:56:45.215Z,18.68
2018-07-22T03:57:45.181Z,18.74
2018-07-22T03:58:45.075Z,18.60
2018-07-22T03:59:45.130Z,18.57
2018-07-22T04:00:44.917Z,18.64
2018-07-22T04:03:27.205Z,18.53
2018-07-22T04:04:27.243Z,18.57
2018-07-22T04:05:27.051Z,18.64
2018-07-22T04:06:27.019Z,18.56
2018-07-22T04:07:26.869Z,18.62
2018-07-22T04:08:26.830Z,18.60
2018-07-22T04:09:26.743Z,18.60
2018-07-22T04:10:26.765Z,18.59
2018-07-22T04:11:26.555Z,18.51
2018-07-22T04:14:08.691Z,18.53
2018-07-22T04:15:08.676Z,18.59
2018-07-22T04:16:08.528Z,18.64
2018-07-22T04:17:08.555Z,18.53
2018-07-22T04:18:08.377Z,18.68
2018-07-22T04:19:08.368Z,18.62
2018-07-22T04:20:08.235Z,18.50
2018-07-22T04:21:08.164Z,18.59
2018-07-22T04:43:50.324Z,18.65
2018-07-22T04:44:50.114Z,18.57
2018-07-22T04:45:50.142Z,18.65
2018-07-22T04:46:49.973Z,18.68
2018-07-22T04:47:49.914Z,18.72
2018-07-22T04:48:49.801Z,18.76
2018-07-22T04:51:31.717Z,18.74
2018-07-22T04:52:31.717Z,18.75
2018-07-22T04:53:31.587Z,18.75
2018-07-22T04:54:31.522Z,18.74
2018-07-22T04:55:31.388Z,18.78
2018-07-22T04:56:31.376Z,18.75
2018-07-22T04:57:31.252Z,18.78
2018-07-22T04:58:31.252Z,18.74
2018-07-22T04:59:31.060Z,18.72
2018-07-22T05:00:31.055Z,18.78
2018-07-22T05:01:30.945Z,18.87
2018-07-22T05:02:30.902Z,18.86
2018-07-22T05:03:30.759Z,18.86
2018-07-22T05:06:12.761Z,19.02
2018-07-22T05:07:12.682Z,18.94
2018-07-22T05:08:12.554Z,18.87
2018-07-22T05:09:12.579Z,18.96
2018-07-22T05:10:12.384Z,18.89
2018-07-22T05:11:12.406Z,18.83
2018-07-22T05:12:12.259Z,18.83
2018-07-22T05:13:12.195Z,18.84
2018-07-22T05:14:12.078Z,18.94
2018-07-22T05:15:12.119Z,18.84
2018-07-22T05:16:11.929Z,18.87
2018-07-22T05:17:11.947Z,18.79
2018-07-22T05:18:11.765Z,18.89
2018-07-22T05:19:11.729Z,18.93
2018-07-22T05:20:11.601Z,19.01
2018-07-22T05:21:11.638Z,18.84
2018-07-22T05:22:11.524Z,18.96
2018-07-22T05:24:53.724Z,18.96
2018-07-22T05:25:53.750Z,18.96
2018-07-22T05:26:53.546Z,18.87
2018-07-22T05:27:53.562Z,18.87
2018-07-22T05:28:53.499Z,18.90
2018-07-22T05:29:53.374Z,18.93
2018-07-22T05:30:53.250Z,18.99
2018-07-22T05:31:53.277Z,18.94
2018-07-22T05:32:53.106Z,18.96
2018-07-22T05:33:53.093Z,18.96
2018-07-22T05:34:52.931Z,18.91
2018-07-22T05:35:52.904Z,19.10
2018-07-22T05:36:52.753Z,18.96
2018-07-22T05:37:52.840Z,19.01
2018-07-22T05:38:52.645Z,19.17
2018-07-22T05:39:52.633Z,19.16
2018-07-22T05:40:52.456Z,19.35
2018-07-22T05:41:52.428Z,19.31
2018-07-22T05:42:52.309Z,19.42
2018-07-22T05:43:52.345Z,19.40
2018-07-22T05:44:52.141Z,19.55
2018-07-22T05:45:52.137Z,19.60
2018-07-22T05:46:51.989Z,19.67
2018-07-22T05:47:51.987Z,19.72
2018-07-22T05:48:51.838Z,19.75
2018-07-22T05:49:51.792Z,19.64
2018-07-22T05:50:51.666Z,19.62
2018-07-22T05:51:51.670Z,19.61
2018-07-22T05:52:51.509Z,19.55
2018-07-22T05:53:51.507Z,19.60
2018-07-22T05:54:51.379Z,19.49
2018-07-22T05:55:51.459Z,19.53
2018-07-22T05:56:51.195Z,19.61
2018-07-22T05:59:33.253Z,19.75
2018-07-22T06:00:33.204Z,19.75
2018-07-22T06:01:33.063Z,19.79
2018-07-22T06:02:33.117Z,19.98
2018-07-22T06:03:32.912Z,19.90
2018-07-22T06:04:34.196Z,19.92
2018-07-22T06:05:32.764Z,19.92
2018-07-22T06:06:32.736Z,19.89
2018-07-22T06:07:32.603Z,19.94
2018-07-22T06:08:32.645Z,19.92
2018-07-22T06:09:32.485Z,19.97
2018-07-22T06:10:33.534Z,19.98
2018-07-22T06:11:32.284Z,20.00
2018-07-22T06:12:32.250Z,20.15
2018-07-22T06:13:32.118Z,20.19
2018-07-22T06:15:30.811Z,20.34
2018-07-22T06:15:32.011Z,20.38
2018-07-22T06:16:31.963Z,20.44
2018-07-22T06:17:31.811Z,20.38
2018-07-22T06:18:31.779Z,20.30
2018-07-22T06:19:31.671Z,20.34
2018-07-22T06:20:31.690Z,20.64
2018-07-22T06:21:31.579Z,20.61
2018-07-22T06:22:31.491Z,20.54
2018-07-22T06:23:31.386Z,20.40
2018-07-22T06:24:31.309Z,20.30
2018-07-22T06:25:31.220Z,20.50
2018-07-22T06:26:31.429Z,20.88
2018-07-22T06:27:31.035Z,21.67
2018-07-22T06:30:13.230Z,23.52
2018-07-22T06:31:13.258Z,24.04
2018-07-22T06:32:13.091Z,24.59
2018-07-22T06:34:55.238Z,24.86
2018-07-22T06:35:55.247Z,24.86
2018-07-22T06:36:55.115Z,24.84
2018-07-22T06:37:55.040Z,24.94
2018-07-22T06:38:54.938Z,25.07
2018-07-22T06:39:54.977Z,24.92
2018-07-22T06:40:54.776Z,25.29
2018-07-22T06:41:54.799Z,25.66
2018-07-22T06:42:54.629Z,25.57
2018-07-22T06:43:54.572Z,25.86
2018-07-22T06:44:54.480Z,26.00
2018-07-22T06:45:54.488Z,26.44
2018-07-22T06:46:54.350Z,26.71
2018-07-22T06:47:54.353Z,26.90
2018-07-22T06:48:54.184Z,26.83
2018-07-22T06:49:54.219Z,26.94
2018-07-22T06:50:54.050Z,26.71
2018-07-22T06:51:54.117Z,26.51
2018-07-22T06:52:53.880Z,26.79
2018-07-22T06:53:53.949Z,26.79
2018-07-22T06:54:53.786Z,26.87
2018-07-22T06:55:53.837Z,26.98
2018-07-22T06:56:53.640Z,26.87
2018-07-22T06:57:53.707Z,26.53
2018-07-22T06:58:53.439Z,25.89
2018-07-22T07:01:35.744Z,24.19
2018-07-22T07:02:35.860Z,24.23
2018-07-22T07:03:35.822Z,24.84
2018-07-22T07:04:35.562Z,25.23
2018-07-22T07:05:35.452Z,25.63
2018-07-22T07:06:35.473Z,26.09
2018-07-22T07:07:35.349Z,26.51
2018-07-22T07:08:35.332Z,26.72
2018-07-22T07:09:35.160Z,27.16
2018-07-22T07:10:35.404Z,27.16
2018-07-22T07:11:35.056Z,26.53
2018-07-22T07:12:35.522Z,26.69
2018-07-22T07:13:34.984Z,26.97
2018-07-22T07:15:36.362Z,27.05
2018-07-22T07:15:36.864Z,27.01
2018-07-22T07:16:36.873Z,26.91
2018-07-22T07:17:36.750Z,26.87
2018-07-22T07:18:36.713Z,27.09
2018-07-22T07:19:36.647Z,27.01
2018-07-22T07:22:18.785Z,26.88
2018-07-22T07:23:18.873Z,27.15
2018-07-22T07:24:18.650Z,27.34
2018-07-22T07:25:18.611Z,27.50
2018-07-22T07:26:18.472Z,27.99
2018-07-22T07:27:18.521Z,27.48
2018-07-22T07:28:18.349Z,27.38
2018-07-22T07:29:18.351Z,27.55
2018-07-22T07:30:18.195Z,27.84
2018-07-22T07:31:18.127Z,28.36
2018-07-22T07:32:18.039Z,28.60
2018-07-22T07:33:18.041Z,29.15
2018-07-22T07:34:17.982Z,28.77
2018-07-22T07:35:17.955Z,28.73
2018-07-22T07:36:17.749Z,28.65
2018-07-22T07:37:17.778Z,28.39
2018-07-22T07:38:17.654Z,28.52
2018-07-22T07:39:17.616Z,28.58
2018-07-22T07:40:17.494Z,28.74
2018-07-22T07:41:17.491Z,29.08
2018-07-22T07:42:17.374Z,29.10
2018-07-22T07:43:17.409Z,29.27
2018-07-22T07:44:17.216Z,29.15
2018-07-22T07:45:17.212Z,29.10
2018-07-22T07:46:17.060Z,28.67
2018-07-22T07:47:17.127Z,28.61
2018-07-22T07:48:16.918Z,28.50
2018-07-22T07:49:16.960Z,28.65
2018-07-22T07:50:16.786Z,27.95
2018-07-22T07:51:16.839Z,27.96
2018-07-22T07:52:16.646Z,28.08
2018-07-22T07:53:16.682Z,28.20
2018-07-22T07:54:16.544Z,27.59
2018-07-22T07:55:16.552Z,27.49
2018-07-22T07:56:16.365Z,26.87
2018-07-22T07:57:16.381Z,26.23
2018-07-22T07:58:16.229Z,26.56
2018-07-22T07:59:16.273Z,26.50
2018-07-22T08:00:16.140Z,27.03
2018-07-22T08:01:16.120Z,26.78
2018-07-22T08:02:15.955Z,27.34
2018-07-22T08:03:15.991Z,28.14
2018-07-22T08:04:15.845Z,28.54
2018-07-22T08:05:15.810Z,28.95
2018-07-22T08:06:15.802Z,28.52
2018-07-22T08:07:15.715Z,28.94
2018-07-22T08:08:15.556Z,28.87
2018-07-22T08:09:15.520Z,28.45
2018-07-22T08:10:15.402Z,28.54
2018-07-22T08:11:15.464Z,28.70
2018-07-22T08:12:15.255Z,29.35
2018-07-22T08:13:15.366Z,29.94
2018-07-22T08:14:15.156Z,30.32
2018-07-22T08:15:15.160Z,30.59
2018-07-22T08:16:15.029Z,30.94
2018-07-22T08:17:15.072Z,30.44
2018-07-22T08:18:14.929Z,29.57
2018-07-22T08:19:14.941Z,29.44
2018-07-22T08:20:15.355Z,29.15
2018-07-22T08:21:14.802Z,29.21
2018-07-22T08:22:14.622Z,29.69
2018-07-22T08:23:14.627Z,29.37
2018-07-22T08:24:14.434Z,28.94
2018-07-22T08:25:14.395Z,28.51
2018-07-22T08:26:14.453Z,28.65
2018-07-22T08:27:14.314Z,28.83
2018-07-22T08:28:14.164Z,29.36
2018-07-22T08:29:14.227Z,29.71
2018-07-22T08:30:14.037Z,30.01
2018-07-22T08:31:14.033Z,29.95
2018-07-22T08:32:13.917Z,29.66
2018-07-22T08:33:13.935Z,29.44
2018-07-22T08:34:13.768Z,29.25
2018-07-22T08:35:13.765Z,29.27
2018-07-22T08:36:13.642Z,29.00
2018-07-22T08:37:13.696Z,29.27
2018-07-22T08:38:13.525Z,29.94
2018-07-22T08:39:13.478Z,30.16
2018-07-22T08:40:13.354Z,29.70
2018-07-22T08:41:13.407Z,29.07
2018-07-22T08:42:13.282Z,28.91
2018-07-22T08:43:13.196Z,29.45
2018-07-22T08:44:13.091Z,29.52
2018-07-22T08:45:13.116Z,29.44
2018-07-22T08:46:12.955Z,28.39
2018-07-22T08:47:13.186Z,28.62
2018-07-22T08:48:12.900Z,29.33
2018-07-22T08:49:12.809Z,29.41
2018-07-22T08:50:12.685Z,29.89
2018-07-22T08:51:12.719Z,30.16
2018-07-22T08:52:12.582Z,30.16
2018-07-22T08:53:12.536Z,29.29
2018-07-22T08:54:12.418Z,28.85
2018-07-22T08:55:12.453Z,29.45
2018-07-22T08:56:12.287Z,29.47
2018-07-22T08:57:12.293Z,29.89
2018-07-22T08:58:12.217Z,30.32
2018-07-22T08:59:12.162Z,30.79
2018-07-22T09:00:12.011Z,30.91
2018-07-22T09:01:11.972Z,30.44
2018-07-22T09:02:11.959Z,29.73
2018-07-22T09:03:11.896Z,29.54
2018-07-22T09:04:11.838Z,29.70
2018-07-22T09:05:11.839Z,29.94
2018-07-22T09:06:11.667Z,30.36
2018-07-22T09:07:11.607Z,30.93
2018-07-22T09:08:11.476Z,31.25
2018-07-22T09:09:12.652Z,31.60
2018-07-22T09:10:11.353Z,31.18
2018-07-22T09:11:11.322Z,31.32
2018-07-22T09:12:11.249Z,30.91
2018-07-22T09:13:11.240Z,30.88
2018-07-22T09:14:11.109Z,30.83
2018-07-22T09:15:11.038Z,31.19
2018-07-22T09:16:10.940Z,31.12
2018-07-22T09:17:10.960Z,31.01
2018-07-22T09:18:10.878Z,31.38
2018-07-22T09:19:10.887Z,31.30
2018-07-22T09:20:10.683Z,31.76
2018-07-22T09:21:10.669Z,31.79
2018-07-22T09:22:10.564Z,31.91
2018-07-22T09:23:10.494Z,31.64
2018-07-22T09:24:10.448Z,31.60
2018-07-22T09:25:10.392Z,31.28
2018-07-22T09:26:10.341Z,29.94
2018-07-22T09:27:10.379Z,29.70
2018-07-22T09:28:10.157Z,30.53
2018-07-22T09:29:10.266Z,31.18
2018-07-22T09:30:10.044Z,31.56
2018-07-22T09:31:10.030Z,31.75
2018-07-22T09:32:09.901Z,31.52
2018-07-22T09:33:09.935Z,31.98
2018-07-22T09:34:09.779Z,32.50
2018-07-22T09:35:09.971Z,31.99
2018-07-22T09:36:09.753Z,31.71
2018-07-22T09:37:09.744Z,31.60
2018-07-22T09:38:09.549Z,31.74
2018-07-22T09:39:09.575Z,31.90
2018-07-22T09:40:09.410Z,32.46
2018-07-22T09:41:09.386Z,32.84
2018-07-22T09:42:09.250Z,32.85
2018-07-22T09:43:09.297Z,33.05
2018-07-22T09:44:09.128Z,32.85
2018-07-22T09:45:09.131Z,32.65
2018-07-22T09:46:08.991Z,32.73
2018-07-22T09:48:51.344Z,31.97
2018-07-22T09:49:51.313Z,30.25
2018-07-22T09:50:51.225Z,28.58
2018-07-22T09:51:51.230Z,28.05
2018-07-22T09:52:51.045Z,29.11
2018-07-22T09:55:33.324Z,30.42
2018-07-22T09:56:33.344Z,29.91
2018-07-22T09:57:33.188Z,29.39
2018-07-22T10:00:15.310Z,31.12
2018-07-22T10:01:15.378Z,31.52
2018-07-22T10:02:15.187Z,31.90
2018-07-22T10:04:57.343Z,32.24
2018-07-22T10:05:57.388Z,32.71
2018-07-22T10:06:57.288Z,33.17
2018-07-22T10:07:57.155Z,33.55
2018-07-22T10:08:57.053Z,33.71
2018-07-22T10:09:57.078Z,33.41
2018-07-22T10:10:56.953Z,33.12
2018-07-22T10:11:57.039Z,32.95
2018-07-22T10:12:56.803Z,31.10
2018-07-22T10:13:56.791Z,30.68
2018-07-22T10:14:56.689Z,31.78
2018-07-22T10:15:56.864Z,32.06
2018-07-22T10:16:56.547Z,32.35
2018-07-22T10:17:56.511Z,32.59
2018-07-22T10:18:56.409Z,32.39
2018-07-22T10:19:56.423Z,31.90
2018-07-22T10:20:56.334Z,31.90
2018-07-22T10:21:56.379Z,31.56
2018-07-22T10:33:18.971Z,32.36
2018-07-22T10:34:18.831Z,32.77
2018-07-22T10:35:18.865Z,32.99
2018-07-22T10:36:18.716Z,33.06
2018-07-22T10:37:18.825Z,32.91
2018-07-22T10:38:18.589Z,33.35
2018-07-22T10:39:18.561Z,33.35
2018-07-22T10:40:18.470Z,33.70
2018-07-22T10:41:18.475Z,33.47
2018-07-22T10:42:18.351Z,33.14
2018-07-22T10:43:18.321Z,33.43
2018-07-22T10:44:18.368Z,33.15
2018-07-22T10:45:18.172Z,32.02
2018-07-22T10:46:18.083Z,31.90
2018-07-22T10:47:18.045Z,31.92
2018-07-22T10:48:17.948Z,32.12
2018-07-22T10:49:17.919Z,32.19
2018-07-22T10:50:17.826Z,32.34
2018-07-22T10:51:17.785Z,33.17
2018-07-22T10:52:17.720Z,32.93
2018-07-22T10:53:17.732Z,32.65
2018-07-22T10:54:17.606Z,32.87
2018-07-22T10:55:17.521Z,32.90
2018-07-22T10:56:17.462Z,33.15
2018-07-22T10:57:17.419Z,33.55
2018-07-22T10:58:17.355Z,33.96
2018-07-22T10:59:17.298Z,34.06
2018-07-22T11:00:17.208Z,32.77
2018-07-22T11:01:17.162Z,32.65
2018-07-22T11:02:17.198Z,33.14
2018-07-22T11:03:17.064Z,32.65
2018-07-22T11:04:16.958Z,32.88
2018-07-22T11:05:16.905Z,32.71
2018-07-22T11:06:16.925Z,32.65
2018-07-22T11:07:16.785Z,33.05
2018-07-22T11:08:16.740Z,33.06
2018-07-22T11:09:16.668Z,33.31
2018-07-22T11:10:16.591Z,33.50
2018-07-22T11:11:16.546Z,33.45
2018-07-22T11:12:16.475Z,32.47
2018-07-22T11:13:16.436Z,31.75
2018-07-22T11:14:16.454Z,30.94
2018-07-22T11:16:58.349Z,29.67
2018-07-22T11:17:58.291Z,29.27
2018-07-22T11:18:58.236Z,29.12
2018-07-22T11:19:58.176Z,30.21
2018-07-22T11:20:58.123Z,30.60
2018-07-22T11:21:58.043Z,31.40
2018-07-22T11:22:57.957Z,31.76
2018-07-22T11:23:57.961Z,31.49
2018-07-22T11:24:57.837Z,30.21
2018-07-22T11:25:57.769Z,30.42
2018-07-22T11:26:57.699Z,31.13
2018-07-22T11:27:57.652Z,31.88
2018-07-22T11:28:57.584Z,31.27
2018-07-22T11:29:57.629Z,30.98
2018-07-22T11:30:57.442Z,30.63
2018-07-22T11:31:57.412Z,30.79
2018-07-22T11:32:57.323Z,30.75
2018-07-22T11:33:57.323Z,30.38
2018-07-22T11:34:57.184Z,30.42
2018-07-22T11:39:03.886Z,29.57
2018-07-22T11:40:03.857Z,30.48
2018-07-22T11:41:03.725Z,31.15
2018-07-22T11:43:45.888Z,31.54
2018-07-22T11:44:45.857Z,31.75
2018-07-22T11:45:45.737Z,30.53
2018-07-22T11:46:45.730Z,29.84
2018-07-22T11:47:45.576Z,29.14
2018-07-22T11:48:45.641Z,29.14
2018-07-22T11:49:45.457Z,29.12
2018-07-22T11:50:45.560Z,29.78
2018-07-22T11:51:45.323Z,30.11
2018-07-22T11:52:45.361Z,29.91
2018-07-22T11:53:45.177Z,29.67
2018-07-22T11:54:45.172Z,29.21
2018-07-22T11:55:45.068Z,28.94
2018-07-22T11:56:45.079Z,28.65
2018-07-22T11:57:44.921Z,28.64
2018-07-22T11:58:44.849Z,28.73
2018-07-22T11:59:44.773Z,28.24
2018-07-22T12:00:44.741Z,28.02
2018-07-22T12:01:44.643Z,28.03
2018-07-22T12:02:44.578Z,28.01
2018-07-22T12:03:44.530Z,28.25
2018-07-22T12:04:44.457Z,28.11
2018-07-22T12:05:44.383Z,28.62
2018-07-22T12:06:44.330Z,29.64
2018-07-22T12:07:44.251Z,29.69
2018-07-22T12:08:44.165Z,30.18
2018-07-22T12:09:44.091Z,30.64
2018-07-22T12:10:44.045Z,30.79
2018-07-22T12:11:43.960Z,31.52
2018-07-22T12:12:43.880Z,31.75
2018-07-22T12:13:43.799Z,31.94
2018-07-22T12:14:43.743Z,31.78
2018-07-22T12:15:43.670Z,30.81
2018-07-22T12:16:43.761Z,30.23
2018-07-22T12:17:43.529Z,29.36
2018-07-22T12:18:43.465Z,29.18
2018-07-22T12:19:43.407Z,28.89
2018-07-22T12:20:43.312Z,28.45
2018-07-22T12:21:43.251Z,28.40
2018-07-22T12:22:43.179Z,28.43
2018-07-22T12:23:43.103Z,28.35
2018-07-22T12:24:43.076Z,28.06
2018-07-22T12:25:42.965Z,28.15
2018-07-22T12:26:42.918Z,28.09
2018-07-22T12:27:42.817Z,28.13
2018-07-22T12:28:42.748Z,28.08
2018-07-22T12:29:42.699Z,28.23
2018-07-22T12:30:42.624Z,28.45
2018-07-22T12:31:42.551Z,28.64
2018-07-22T12:32:42.479Z,28.72
2018-07-22T12:33:42.405Z,28.74
2018-07-22T12:34:42.330Z,28.51
2018-07-22T12:35:42.267Z,28.79
2018-07-22T12:36:43.200Z,28.91
2018-07-22T12:37:42.120Z,29.08
2018-07-22T12:38:42.034Z,29.37
2018-07-22T12:39:41.974Z,29.63
2018-07-22T12:40:41.938Z,29.76
2018-07-22T12:41:41.815Z,29.55
2018-07-22T12:42:41.785Z,29.26
2018-07-22T12:43:41.673Z,29.47
2018-07-22T12:44:41.611Z,29.52
2018-07-22T12:45:41.532Z,29.52
2018-07-22T12:46:41.466Z,29.26
2018-07-22T12:47:41.429Z,29.29
2018-07-22T12:48:41.432Z,29.26
2018-07-22T12:49:41.249Z,29.25
2018-07-22T12:50:41.255Z,29.25
2018-07-22T12:51:41.103Z,29.07
2018-07-22T12:52:41.157Z,28.88
2018-07-22T12:53:41.031Z,28.92
2018-07-22T12:54:40.961Z,28.89
2018-07-22T12:55:40.807Z,28.74
2018-07-22T12:56:40.892Z,28.76
2018-07-22T12:57:40.738Z,28.79
2018-07-22T12:58:40.747Z,28.88
2018-07-22T12:59:40.533Z,29.10
2018-07-22T13:02:22.401Z,29.62
2018-07-22T13:03:22.422Z,29.51
2018-07-22T13:04:22.233Z,29.57
2018-07-22T13:05:22.295Z,29.86
2018-07-22T13:06:22.120Z,30.04
2018-07-22T13:09:04.452Z,29.71
2018-07-22T13:10:04.420Z,29.51
2018-07-22T13:11:04.241Z,29.44
2018-07-22T13:13:46.405Z,29.54
2018-07-22T13:14:46.414Z,29.39
2018-07-22T13:15:46.259Z,29.18
2018-07-22T13:18:28.524Z,29.55
2018-07-22T13:30:44.520Z,30.16
2018-07-22T13:31:44.335Z,30.37
2018-07-22T13:34:26.413Z,30.72
2018-07-22T13:36:50.908Z,31.00
2018-07-22T13:37:50.960Z,31.12
2018-07-22T13:38:50.781Z,31.05
2018-07-22T13:39:50.843Z,30.61
2018-07-22T13:40:50.659Z,30.40
2018-07-22T13:49:31.860Z,30.57
2018-07-22T13:50:31.749Z,30.45
2018-07-22T13:51:31.678Z,30.44
2018-07-22T13:54:13.895Z,30.11
2018-07-22T13:55:13.966Z,30.00
2018-07-22T13:56:13.766Z,29.97
2018-07-22T13:57:13.737Z,30.21
2018-07-22T13:58:13.629Z,30.26
2018-07-22T13:59:14.612Z,30.13
2018-07-22T14:00:13.492Z,30.00
2018-07-22T14:02:55.402Z,29.54
2018-07-22T14:03:55.514Z,29.39
2018-07-22T14:04:55.296Z,29.39
2018-07-22T14:05:55.265Z,29.44
2018-07-22T14:06:55.139Z,29.27
2018-07-22T14:07:55.177Z,29.15
2018-07-22T14:08:54.977Z,29.15
2018-07-22T14:09:54.979Z,29.11
2018-07-22T14:10:54.871Z,29.03
2018-07-22T14:11:54.944Z,29.07
2018-07-22T14:12:54.696Z,28.95
2018-07-22T14:13:54.707Z,28.88
2018-07-22T14:14:54.555Z,28.88
2018-07-22T14:15:54.642Z,28.94
2018-07-22T14:16:54.417Z,29.03
2018-07-22T14:17:54.468Z,29.03
2018-07-22T14:21:18.438Z,28.82
2018-07-22T14:22:18.478Z,28.83
2018-07-22T14:23:18.284Z,28.88
2018-07-22T14:24:18.320Z,28.94
2018-07-22T14:25:18.153Z,28.89
2018-07-22T14:28:00.443Z,28.62
2018-07-22T14:29:00.439Z,28.60
2018-07-22T14:30:00.265Z,28.55
2018-07-22T14:31:00.272Z,28.55
2018-07-22T14:32:00.123Z,28.62
2018-07-22T14:33:00.151Z,28.69
2018-07-22T14:34:00.031Z,28.61
2018-07-22T14:34:59.979Z,28.45
2018-07-22T14:35:59.846Z,28.42
2018-07-22T14:36:59.895Z,28.43
2018-07-22T14:37:59.711Z,28.51
2018-07-22T14:38:59.683Z,28.46
2018-07-22T14:39:59.584Z,28.54
2018-07-22T14:40:59.759Z,28.57
2018-07-22T14:41:59.447Z,28.43
2018-07-22T14:42:59.380Z,28.51
2018-07-22T14:43:59.268Z,28.55
2018-07-22T14:46:41.489Z,28.50
2018-07-22T14:49:23.412Z,28.45
2018-07-22T14:50:23.412Z,28.51
2018-07-22T14:51:23.287Z,28.50
2018-07-22T14:52:23.338Z,28.51
2018-07-22T14:53:23.121Z,28.50
2018-07-22T14:54:23.118Z,28.57
2018-07-22T14:55:22.985Z,28.62
2018-07-22T14:58:04.938Z,28.67
2018-07-22T14:59:04.925Z,28.64
2018-07-22T15:00:04.786Z,28.50